Moycullen, Ireland
Current Conditions -  °F | °C
As of 1:00 PM on Thursday 30 Oct 2014 (Local Time) from EIKN Reporting Station
Broken Clouds Broken Clouds  
Wind Chill: 57°   Ceiling: 800
Heat Index: 57°   Visibility: 6mi
Dew Point: 55°   Wind: 15mph
Humidity: 94%   Direction: 170°S
Pressure: 29.74"   Gusts: NA
Location:  53.34°N, 9.18°W
Report Text: EIKN 301300Z 17013KT 140V200 9999 BKN008 BKN017 BKN032 14/13 Q1007 TEMPO 3000
Loading
Personal Weather Stations






























Interactive Weather Map
Tropical Storm Tracking
New forecast layout! Learn more

10-Day Weather Forecast

Advertisements
Track Severe Weather on mobile